Time;durP1;ratioP1;P1;durP2;ratioP2;P2;SDS_P1;SDS_P2;PMS_P1;PMS_P2;Temp;Humidity;BMP_temperature;BMP_pressure;BME280_temperature;BME280_humidity;BME280_pressure;Samples;Min_cycle;Max_cycle;Signal;HPM_P1;HPM_P2
2024/02/03 00:00:39;;;;;;;0.60;0.57;;;18.40;45.30;;;;;;8360385;28;20037;-49
2024/02/03 00:04:39;;;;;;;0.60;0.50;;;18.40;45.30;;;;;;8360529;28;20037;-50
2024/02/03 00:08:40;;;;;;;0.50;0.50;;;18.40;45.20;;;;;;8360481;28;20032;-49
2024/02/03 00:12:43;;;;;;;0.57;0.57;;;18.40;45.20;;;;;;8359073;28;20065;-50
2024/02/03 00:16:44;;;;;;;0.60;0.60;;;18.50;45.30;;;;;;8359639;28;20044;-50
2024/02/03 00:20:45;;;;;;;0.85;0.68;;;18.50;45.30;;;;;;8360202;28;20030;-49
2024/02/03 00:24:46;;;;;;;0.50;0.50;;;18.50;45.30;;;;;;8359993;28;20025;-49
2024/02/03 00:28:46;;;;;;;0.82;0.73;;;18.40;45.20;;;;;;8359744;28;20372;-49
2024/02/03 00:32:47;;;;;;;0.77;0.60;;;18.50;45.20;;;;;;8359807;28;20052;-49
2024/02/03 00:36:48;;;;;;;0.75;0.70;;;18.40;45.20;;;;;;8359731;28;20081;-49
2024/02/03 00:40:49;;;;;;;0.65;0.63;;;18.50;45.20;;;;;;8359594;28;20040;-48
2024/02/03 00:44:49;;;;;;;0.50;0.50;;;18.50;45.20;;;;;;8359793;28;20037;-49
2024/02/03 00:48:50;;;;;;;0.50;0.50;;;18.40;45.70;;;;;;8359375;28;20032;-49
2024/02/03 00:52:51;;;;;;;0.80;0.80;;;18.40;45.20;;;;;;8359501;28;20487;-48
2024/02/03 00:56:51;;;;;;;0.73;0.50;;;18.50;45.30;;;;;;8359513;28;20041;-50
2024/02/03 01:00:52;;;;;;;0.60;0.60;;;18.50;45.30;;;;;;8359075;28;20064;-49
2024/02/03 01:04:53;;;;;;;0.52;0.52;;;18.40;45.20;;;;;;8359742;28;20064;-49
2024/02/03 01:08:54;;;;;;;0.63;0.50;;;18.40;45.20;;;;;;8359094;28;20026;-49
2024/02/03 01:12:55;;;;;;;0.95;0.73;;;18.50;45.30;;;;;;8358921;28;20051;-49
2024/02/03 01:16:56;;;;;;;0.50;0.50;;;18.40;45.20;;;;;;8359327;28;20112;-49
2024/02/03 01:20:56;;;;;;;0.65;0.60;;;18.40;45.20;;;;;;8358808;28;20490;-51
2024/02/03 01:24:57;;;;;;;0.63;0.63;;;18.50;45.30;;;;;;8365418;28;20431;-49
2024/02/03 01:28:58;;;;;;;0.45;0.45;;;18.40;45.20;;;;;;8365239;28;20044;-49
2024/02/03 01:32:58;;;;;;;0.47;0.47;;;18.50;45.20;;;;;;8364872;28;20048;-49
2024/02/03 01:36:59;;;;;;;0.60;0.60;;;18.40;45.20;;;;;;8363683;28;20043;-50
2024/02/03 01:41:00;;;;;;;0.73;0.40;;;18.40;45.20;;;;;;8364541;28;20033;-50
2024/02/03 01:45:01;;;;;;;0.52;0.52;;;18.40;45.20;;;;;;8364996;28;20108;-49
2024/02/03 01:49:01;;;;;;;1.02;0.57;;;18.40;45.20;;;;;;8364465;28;20025;-49
2024/02/03 01:53:03;;;;;;;0.57;0.55;;;18.40;45.30;;;;;;8364387;28;20033;-48
2024/02/03 01:57:05;;;;;;;0.47;0.47;;;18.40;45.30;;;;;;8364272;28;20029;-49
2024/02/03 02:01:07;;;;;;;0.57;0.47;;;18.40;45.30;;;;;;8363986;28;20441;-50
2024/02/03 02:05:07;;;;;;;;;;;18.40;45.30;;;;;;8364541;28;20470;-49
2024/02/03 02:09:17;;;;;;;0.63;0.50;;;18.40;45.30;;;;;;8364693;28;20328;-49
2024/02/03 02:13:18;;;;;;;0.60;0.60;;;18.40;45.30;;;;;;8363464;28;20088;-50
2024/02/03 02:17:18;;;;;;;0.88;0.77;;;18.40;45.30;;;;;;8363847;28;20106;-49
2024/02/03 02:21:20;;;;;;;1.00;0.60;;;18.40;45.30;;;;;;8363681;28;20029;-49
2024/02/03 02:25:21;;;;;;;0.82;0.70;;;18.40;45.30;;;;;;8363456;28;20025;-49
2024/02/03 02:29:22;;;;;;;0.63;0.60;;;18.40;45.30;;;;;;8362500;28;20438;-49
2024/02/03 02:33:23;;;;;;;0.50;0.50;;;18.30;45.30;;;;;;8362554;28;20025;-49
2024/02/03 02:37:24;;;;;;;0.60;0.60;;;18.40;45.30;;;;;;8363086;28;20463;-49
2024/02/03 02:41:24;;;;;;;0.90;0.70;;;18.40;45.30;;;;;;8361626;28;20526;-48
2024/02/03 02:45:25;;;;;;;0.90;0.90;;;18.40;45.30;;;;;;8362859;28;20434;-50
2024/02/03 02:49:26;;;;;;;0.65;0.52;;;18.40;45.30;;;;;;8362856;28;20048;-48
2024/02/03 02:53:26;;;;;;;0.70;0.70;;;18.40;45.30;;;;;;8362844;28;20044;-48
2024/02/03 02:57:27;;;;;;;0.60;0.60;;;18.40;45.30;;;;;;8362423;28;20068;-48
2024/02/03 03:01:28;;;;;;;0.75;0.50;;;18.40;45.30;;;;;;8362311;28;20090;-48
2024/02/03 03:05:29;;;;;;;0.50;0.50;;;18.40;45.30;;;;;;8362596;28;20017;-48
2024/02/03 03:09:29;;;;;;;0.63;0.63;;;18.40;45.30;;;;;;8362298;28;20056;-47
2024/02/03 03:13:30;;;;;;;0.82;0.50;;;18.40;45.30;;;;;;8428535;28;20077;-48
2024/02/03 03:17:31;;;;;;;0.60;0.60;;;18.30;45.20;;;;;;8409993;28;20093;-47
2024/02/03 03:21:32;;;;;;;0.60;0.60;;;18.40;45.30;;;;;;8428209;28;20036;-49
2024/02/03 03:25:32;;;;;;;0.60;0.60;;;18.40;45.30;;;;;;8428282;28;20028;-49
2024/02/03 03:29:33;;;;;;;0.60;0.60;;;18.40;45.30;;;;;;8427766;28;20077;-48
2024/02/03 03:33:33;;;;;;;0.60;0.60;;;18.40;45.20;;;;;;8427654;28;20767;-49
2024/02/03 03:37:34;;;;;;;0.60;0.60;;;18.40;45.30;;;;;;8428109;28;20284;-48
2024/02/03 03:41:35;;;;;;;0.60;0.60;;;18.30;45.30;;;;;;8427267;28;20967;-48
2024/02/03 03:45:35;;;;;;;0.63;0.60;;;18.40;45.30;;;;;;8427599;28;20266;-48
2024/02/03 03:49:36;;;;;;;0.50;0.50;;;18.30;45.30;;;;;;8427503;28;20285;-49
2024/02/03 03:53:37;;;;;;;0.65;0.60;;;18.30;45.30;;;;;;8427143;28;20040;-49
2024/02/03 03:57:37;;;;;;;0.60;0.57;;;18.30;45.30;;;;;;8426967;28;20123;-49
2024/02/03 04:01:38;;;;;;;0.70;0.70;;;18.30;45.30;;;;;;8408749;28;20436;-48
2024/02/03 04:05:39;;;;;;;0.55;0.55;;;18.30;45.30;;;;;;8426874;28;20031;-49
2024/02/03 04:09:47;;;;;;;0.85;0.70;;;18.30;45.30;;;;;;8426690;28;20043;-48
2024/02/03 04:13:48;;;;;;;0.55;0.55;;;18.30;45.80;;;;;;8426473;28;20549;-49
2024/02/03 04:17:50;;;;;;;2.63;0.70;;;18.30;45.30;;;;;;8426484;28;20426;-48
2024/02/03 04:21:50;;;;;;;0.70;0.60;;;18.30;45.30;;;;;;8426827;28;20286;-49
2024/02/03 04:25:51;;;;;;;0.60;0.60;;;18.30;45.20;;;;;;8426210;28;20069;-48
2024/02/03 04:29:52;;;;;;;0.73;0.60;;;18.30;45.20;;;;;;8426211;28;20056;-49
2024/02/03 04:33:52;;;;;;;0.52;0.50;;;18.30;45.20;;;;;;8426580;28;20081;-49
2024/02/03 04:37:55;;;;;;;0.73;0.73;;;18.30;45.30;;;;;;8426182;28;20486;-49
2024/02/03 04:41:56;;;;;;;0.70;0.70;;;18.30;45.30;;;;;;8425587;28;20043;-48
2024/02/03 04:45:56;;;;;;;0.57;0.50;;;18.30;45.30;;;;;;8426157;28;20119;-49
2024/02/03 04:49:57;;;;;;;1.17;1.08;;;18.30;45.20;;;;;;8426052;28;20052;-49
2024/02/03 04:53:58;;;;;;;0.63;0.63;;;18.30;45.30;;;;;;8425818;28;20040;-48
2024/02/03 04:57:58;;;;;;;0.50;0.50;;;18.30;45.20;;;;;;8429395;28;20051;-49
2024/02/03 05:01:59;;;;;;;0.73;0.73;;;18.30;45.30;;;;;;8432664;28;20036;-49
2024/02/03 05:06:03;;;;;;;0.85;0.60;;;18.30;45.30;;;;;;8432579;28;20324;-49
2024/02/03 05:10:04;;;;;;;0.60;0.60;;;18.30;45.30;;;;;;8432317;28;20119;-48
2024/02/03 05:14:05;;;;;;;0.50;0.50;;;18.30;45.30;;;;;;8432448;28;20024;-49
2024/02/03 05:18:06;;;;;;;0.70;0.70;;;18.30;45.20;;;;;;8432041;28;20047;-51
2024/02/03 05:22:07;;;;;;;0.75;0.70;;;18.30;45.30;;;;;;8432067;28;20043;-49
2024/02/03 05:26:08;;;;;;;0.50;0.40;;;18.30;45.20;;;;;;8431615;28;20039;-49
2024/02/03 05:30:09;;;;;;;0.50;0.50;;;18.30;45.30;;;;;;8431863;28;20485;-48
2024/02/03 05:34:11;;;;;;;0.60;0.60;;;18.30;45.30;;;;;;8431887;28;20036;-49
2024/02/03 05:38:13;;;;;;;0.57;0.57;;;18.30;45.30;;;;;;8431330;28;20457;-48
2024/02/03 05:42:13;;;;;;;0.75;0.75;;;18.20;45.20;;;;;;8413220;28;20028;-47
2024/02/03 05:46:14;;;;;;;0.77;0.77;;;18.20;45.30;;;;;;8431505;28;20025;-49
2024/02/03 05:50:15;;;;;;;0.50;0.50;;;18.30;45.30;;;;;;8431094;28;20290;-49
2024/02/03 05:54:16;;;;;;;1.02;0.60;;;18.20;45.30;;;;;;8431299;28;20032;-48
2024/02/03 05:58:16;;;;;;;0.50;0.50;;;18.20;45.30;;;;;;8430899;28;20341;-48
2024/02/03 06:02:17;;;;;;;0.55;0.55;;;18.20;45.20;;;;;;8430751;28;20293;-48
2024/02/03 06:06:18;;;;;;;0.50;0.50;;;18.20;45.30;;;;;;8430728;28;20028;-48
2024/02/03 06:10:18;;;;;;;0.80;0.60;;;18.20;45.30;;;;;;8411345;28;20055;-49
2024/02/03 06:14:19;;;;;;;0.60;0.60;;;18.20;45.20;;;;;;8430475;28;20039;-49
2024/02/03 06:18:20;;;;;;;0.50;0.50;;;18.30;45.30;;;;;;8430439;28;20633;-48
2024/02/03 06:22:20;;;;;;;0.65;0.65;;;18.30;45.20;;;;;;8430557;28;20166;-49
2024/02/03 06:26:21;;;;;;;0.60;0.60;;;18.40;45.10;;;;;;8429662;28;20039;-48
2024/02/03 06:30:22;;;;;;;0.60;0.60;;;18.50;45.00;;;;;;8430066;28;20285;-49
2024/02/03 06:34:23;;;;;;;0.60;0.60;;;18.50;44.90;;;;;;8429987;28;20679;-49
2024/02/03 06:38:23;;;;;;;0.57;0.57;;;18.50;44.80;;;;;;8429790;28;20032;-48
2024/02/03 06:42:24;;;;;;;0.80;0.80;;;18.50;44.70;;;;;;8429368;28;20028;-48
2024/02/03 06:46:25;;;;;;;0.60;0.60;;;18.60;44.70;;;;;;8429341;28;20032;-48
2024/02/03 06:50:25;;;;;;;0.80;0.55;;;18.60;44.70;;;;;;8429531;28;20032;-49
2024/02/03 06:54:26;;;;;;;0.50;0.50;;;18.50;44.70;;;;;;8429393;28;20036;-49
2024/02/03 06:58:27;;;;;;;0.50;0.50;;;18.60;44.70;;;;;;8429081;28;20085;-49
2024/02/03 07:02:27;;;;;;;0.50;0.50;;;18.60;44.70;;;;;;8428977;28;20047;-49
2024/02/03 07:06:28;;;;;;;0.88;0.70;;;18.60;44.60;;;;;;8428751;28;20020;-49
2024/02/03 07:10:29;;;;;;;0.60;0.60;;;18.60;44.60;;;;;;8428496;28;20056;-48
2024/02/03 07:14:29;;;;;;;0.70;0.70;;;18.60;44.60;;;;;;8428883;28;20032;-48
2024/02/03 07:18:30;;;;;;;0.63;0.63;;;18.60;44.60;;;;;;8428264;28;20032;-49
2024/02/03 07:22:31;;;;;;;0.80;0.50;;;18.60;44.60;;;;;;8427818;28;20469;-50
2024/02/03 07:26:31;;;;;;;0.40;0.40;;;18.60;44.60;;;;;;8428342;28;20262;-49
2024/02/03 07:30:32;;;;;;;0.85;0.60;;;18.60;45.20;;;;;;8427748;28;20648;-49
2024/02/03 07:34:33;;;;;;;0.85;0.85;;;18.60;44.60;;;;;;8427824;28;20056;-49
2024/02/03 07:38:33;;;;;;;0.70;0.60;;;18.60;44.60;;;;;;8428059;28;20248;-49
2024/02/03 07:42:34;;;;;;;0.50;0.50;;;18.60;44.60;;;;;;8427328;28;20111;-48
2024/02/03 07:46:36;;;;;;;0.60;0.60;;;18.60;44.50;;;;;;8427549;28;20070;-48
2024/02/03 07:50:37;;;;;;;0.88;0.60;;;18.60;44.60;;;;;;8427553;28;20107;-49
2024/02/03 07:54:38;;;;;;;0.63;0.63;;;18.60;44.60;;;;;;8427127;28;20542;-49
2024/02/03 07:58:39;;;;;;;0.43;0.43;;;18.60;44.60;;;;;;8426877;28;20020;-49
2024/02/03 08:02:39;;;;;;;0.68;0.68;;;18.60;44.60;;;;;;8427049;28;20501;-49
2024/02/03 08:06:40;;;;;;;0.60;0.60;;;18.60;44.60;;;;;;8426656;28;20036;-50
2024/02/03 08:10:41;;;;;;;0.60;0.60;;;18.60;44.60;;;;;;8427164;28;20568;-49
2024/02/03 08:14:41;;;;;;;0.57;0.57;;;18.60;44.60;;;;;;8426687;28;20083;-48
2024/02/03 08:18:42;;;;;;;1.17;0.88;;;18.60;44.60;;;;;;8426525;28;20426;-49
2024/02/03 08:22:43;;;;;;;0.60;0.60;;;18.60;44.60;;;;;;8426460;28;20040;-49
2024/02/03 08:26:46;;;;;;;0.50;0.50;;;18.60;44.60;;;;;;8426802;28;20032;-48
2024/02/03 08:30:47;;;;;;;0.70;0.52;;;18.60;44.60;;;;;;8425529;28;20066;-49
2024/02/03 08:34:48;;;;;;;0.95;0.77;;;18.60;44.60;;;;;;8426291;28;20111;-49
2024/02/03 08:38:48;;;;;;;0.45;0.45;;;18.60;44.60;;;;;;8426150;28;20028;-49
2024/02/03 08:42:49;;;;;;;0.90;0.50;;;18.60;44.60;;;;;;8425826;28;20152;-51
2024/02/03 08:46:50;;;;;;;0.50;0.50;;;18.60;44.50;;;;;;8426175;28;20392;-49
2024/02/03 08:50:51;;;;;;;0.70;0.70;;;18.60;44.50;;;;;;8425947;28;20111;-49
2024/02/03 08:54:51;;;;;;;0.52;0.50;;;18.70;44.50;;;;;;8426137;28;20481;-49
2024/02/03 08:58:52;;;;;;;0.70;0.70;;;18.60;44.50;;;;;;8425967;28;20036;-52
2024/02/03 09:02:52;;;;;;;0.80;0.70;;;18.60;44.50;;;;;;8425626;28;20043;-49
2024/02/03 09:06:53;;;;;;;0.50;0.50;;;18.60;44.60;;;;;;8426120;28;20432;-50
2024/02/03 09:10:55;;;;;;;0.70;0.70;;;18.60;44.60;;;;;;8425590;28;20056;-50
2024/02/03 09:14:56;;;;;;;0.43;0.43;;;18.50;44.60;;;;;;8425527;28;20440;-49
2024/02/03 09:18:57;;;;;;;0.50;0.50;;;18.50;44.70;;;;;;8425969;28;20036;-49
2024/02/03 09:22:58;;;;;;;0.73;0.63;;;18.50;44.70;;;;;;8407249;28;20101;-49
2024/02/03 09:26:58;;;;;;;0.50;0.50;;;18.50;44.80;;;;;;8425332;28;20278;-49
2024/02/03 09:30:59;;;;;;;0.43;0.43;;;18.50;44.80;;;;;;8425368;28;20085;-50
2024/02/03 09:35:00;;;;;;;0.77;0.68;;;18.50;44.80;;;;;;8425600;28;20028;-49
2024/02/03 09:39:01;;;;;;;0.60;0.50;;;18.50;44.70;;;;;;8425526;28;20036;-48
2024/02/03 09:43:02;;;;;;;0.50;0.50;;;18.60;44.70;;;;;;8427016;28;20040;-50
2024/02/03 09:47:03;;;;;;;0.40;0.40;;;18.60;44.60;;;;;;8431505;28;20429;-49
2024/02/03 09:51:04;;;;;;;0.52;0.52;;;18.60;44.60;;;;;;8430963;28;20036;-49
2024/02/03 09:55:05;;;;;;;0.70;0.70;;;18.60;44.60;;;;;;8431198;28;20486;-48
2024/02/03 09:59:06;;;;;;;0.50;0.50;;;18.60;44.60;;;;;;8430391;28;20495;-50
2024/02/03 10:03:17;;;;;;;0.60;0.60;;;18.60;44.60;;;;;;8430550;28;20024;-49
2024/02/03 10:07:19;;;;;;;0.50;0.50;;;18.60;44.60;;;;;;8430760;28;20504;-48
2024/02/03 10:11:20;;;;;;;0.50;0.50;;;18.60;44.60;;;;;;8430429;28;20321;-49
2024/02/03 10:15:21;;;;;;;0.50;0.50;;;18.60;44.60;;;;;;8430425;28;20035;-49
2024/02/03 10:19:22;;;;;;;0.73;0.70;;;18.60;44.60;;;;;;8431156;28;20028;-50
2024/02/03 10:23:23;;;;;;;;;;;18.60;44.60;;;;;;8430655;28;20112;-48
2024/02/03 10:27:25;;;;;;;0.90;0.70;;;18.60;44.60;;;;;;8429860;28;19908;-49
2024/02/03 10:31:26;;;;;;;0.50;0.50;;;18.60;44.60;;;;;;8429935;28;20191;-50
2024/02/03 10:35:31;;;;;;;0.52;0.50;;;18.60;44.60;;;;;;8411850;28;20024;-49
2024/02/03 10:39:31;;;;;;;0.50;0.50;;;18.60;44.60;;;;;;8429818;28;20024;-49
2024/02/03 10:43:34;;;;;;;0.63;0.63;;;18.60;44.60;;;;;;8429579;28;20028;-50
2024/02/03 10:47:38;;;;;;;0.45;0.45;;;18.60;44.60;;;;;;8429609;28;20016;-50
2024/02/03 10:51:40;;;;;;;0.73;0.68;;;18.60;44.70;;;;;;8429215;28;20039;-51
2024/02/03 10:55:47;;;;;;;0.82;0.80;;;18.60;44.70;;;;;;8410431;28;20028;-49
2024/02/03 10:59:48;;;;;;;0.63;0.60;;;18.50;44.70;;;;;;8395516;28;20406;-48
2024/02/03 11:03:51;;;;;;;0.55;0.55;;;18.50;44.70;;;;;;8395373;28;20029;-49
2024/02/03 11:07:52;;;;;;;0.43;0.43;;;18.50;44.70;;;;;;8395313;28;20021;-48
2024/02/03 11:11:54;;;;;;;0.70;0.60;;;18.50;44.80;;;;;;8394926;28;20060;-48
2024/02/03 11:15:56;;;;;;;0.50;0.50;;;18.50;44.80;;;;;;8394905;28;20520;-50
2024/02/03 11:19:57;;;;;;;0.50;0.50;;;18.50;44.80;;;;;;8394916;28;20035;-50
2024/02/03 11:23:58;;;;;;;0.60;0.60;;;18.50;44.80;;;;;;8394873;28;20032;-49
2024/02/03 11:27:59;;;;;;;0.52;0.52;;;18.50;44.80;;;;;;8414091;28;20034;-50
2024/02/03 11:32:04;;;;;;;0.60;0.60;;;18.50;44.80;;;;;;8428113;28;20036;-51
2024/02/03 11:36:08;;;;;;;0.60;0.60;;;18.50;44.90;;;;;;8427911;28;20394;-50
2024/02/03 11:40:10;;;;;;;1.38;0.50;;;18.50;44.80;;;;;;8427721;28;20359;-51
2024/02/03 11:44:10;;;;;;;0.60;0.47;;;18.50;44.80;;;;;;8409256;28;20024;-48
2024/02/03 11:48:12;;;;;;;0.50;0.50;;;18.50;44.90;;;;;;8427512;28;20036;-50
2024/02/03 11:52:12;;;;;;;0.68;0.60;;;18.50;44.80;;;;;;8427370;28;20043;-48
2024/02/03 11:56:13;;;;;;;0.52;0.52;;;18.50;44.80;;;;;;8427418;28;20028;-49
2024/02/03 12:00:18;;;;;;;0.40;0.40;;;18.50;44.80;;;;;;8427173;28;20036;-50
2024/02/03 12:04:19;;;;;;;0.50;0.50;;;18.50;44.90;;;;;;8427212;28;20027;-51
2024/02/03 12:08:20;;;;;;;0.50;0.50;;;18.50;44.90;;;;;;8425909;28;20032;-49
2024/02/03 12:12:24;;;;;;;0.40;0.40;;;18.50;44.90;;;;;;8426870;28;20497;-49
2024/02/03 12:16:24;;;;;;;0.75;0.65;;;18.50;44.90;;;;;;8408658;28;20082;-48
2024/02/03 12:20:26;;;;;;;0.45;0.45;;;18.40;44.90;;;;;;8408702;28;20068;-51
2024/02/03 12:24:27;;;;;;;0.60;0.60;;;18.40;44.90;;;;;;8426586;28;20043;-49
2024/02/03 12:28:28;;;;;;;1.05;0.60;;;18.40;44.90;;;;;;8426451;28;20032;-48
2024/02/03 12:32:28;;;;;;;0.40;0.40;;;18.40;44.90;;;;;;8426479;28;20039;-49
2024/02/03 12:36:30;;;;;;;0.70;0.60;;;18.40;44.90;;;;;;8408130;28;20051;-49
2024/02/03 12:40:30;;;;;;;;;;;18.40;44.90;;;;;;8426585;28;20066;-49
2024/02/03 12:44:31;;;;;;;0.93;0.53;;;18.40;44.90;;;;;;8426482;28;19961;-50
2024/02/03 12:48:32;;;;;;;0.50;0.50;;;18.40;45.00;;;;;;8426134;28;20549;-49
2024/02/03 12:52:34;;;;;;;0.70;0.60;;;18.40;45.00;;;;;;8425928;28;20285;-50
2024/02/03 12:56:35;;;;;;;0.43;0.43;;;18.40;45.00;;;;;;8426230;28;20040;-50
2024/02/03 13:00:35;;;;;;;1.08;0.65;;;18.40;45.00;;;;;;8425695;28;20119;-48
2024/02/03 13:04:36;;;;;;;0.50;0.50;;;18.40;45.00;;;;;;8407964;28;20064;-52
2024/02/03 13:08:37;;;;;;;0.80;0.80;;;18.40;45.10;;;;;;8425541;28;20058;-50
2024/02/03 13:12:40;;;;;;;1.30;1.13;;;18.30;45.30;;;;;;8419864;28;20072;-52
2024/02/03 13:16:41;;;;;;;1.33;1.23;;;18.30;44.90;;;;;;8420081;28;20097;-54
2024/02/03 13:20:42;;;;;;;4.63;2.00;;;18.20;44.70;;;;;;8421637;28;20133;-52
2024/02/03 13:24:42;;;;;;;3.30;2.30;;;18.10;44.20;;;;;;8430274;28;20469;-53
2024/02/03 13:28:43;;;;;;;5.10;3.10;;;18.20;43.90;;;;;;8414919;28;20060;-54
2024/02/03 13:32:44;;;;;;;3.67;2.55;;;18.10;43.60;;;;;;8432030;28;20448;-52
2024/02/03 13:36:45;;;;;;;5.70;2.53;;;18.10;43.50;;;;;;8406804;28;20043;-52
2024/02/03 13:40:47;;;;;;;5.43;3.50;;;18.10;43.30;;;;;;8414902;28;20037;-48
2024/02/03 13:44:47;;;;;;;4.38;2.83;;;18.10;42.90;;;;;;8429773;28;20028;-47
2024/02/03 13:48:48;;;;;;;5.10;3.17;;;18.10;43.00;;;;;;8429534;28;20073;-55
2024/02/03 13:52:49;;;;;;;4.57;2.80;;;18.20;42.90;;;;;;8425751;28;20032;-51
2024/02/03 13:56:50;;;;;;;4.30;3.03;;;18.10;42.60;;;;;;8424854;28;20060;-52
2024/02/03 14:00:50;;;;;;;5.40;3.08;;;18.10;42.40;;;;;;8414663;28;20371;-50
2024/02/03 14:04:51;;;;;;;3.97;2.55;;;18.10;42.30;;;;;;8424646;28;20028;-53
2024/02/03 14:08:52;;;;;;;3.40;2.63;;;18.10;42.20;;;;;;8424208;28;20522;-53
2024/02/03 14:12:53;;;;;;;4.55;3.05;;;18.10;42.00;;;;;;8423720;28;20044;-53
2024/02/03 14:16:54;;;;;;;5.68;2.75;;;18.10;41.90;;;;;;8423872;28;20028;-54
2024/02/03 14:20:55;;;;;;;4.85;3.00;;;18.20;42.00;;;;;;8423905;28;20036;-51
2024/02/03 14:24:55;;;;;;;4.47;2.80;;;18.10;41.80;;;;;;8424427;28;20112;-53
2024/02/03 14:28:56;;;;;;;7.07;3.10;;;18.20;41.80;;;;;;8413080;28;20149;-52
2024/02/03 14:32:57;;;;;;;5.45;3.25;;;18.30;41.90;;;;;;8423655;28;20106;-49
2024/02/03 14:36:58;;;;;;;3.60;2.40;;;18.40;42.30;;;;;;8423069;28;21289;-45
2024/02/03 14:41:01;;;;;;;4.22;2.75;;;18.50;42.50;;;;;;8412937;28;20715;-48
2024/02/03 14:45:02;;;;;;;4.90;2.45;;;18.60;42.70;;;;;;8422317;28;20119;-52
2024/02/03 14:49:02;;;;;;;4.45;2.22;;;18.60;42.60;;;;;;8418193;28;20047;-44
2024/02/03 14:53:03;;;;;;;6.13;2.63;;;18.70;43.10;;;;;;8418883;28;20451;-45
2024/02/03 14:57:05;;;;;;;4.90;2.25;;;18.70;43.10;;;;;;8411644;28;20036;-46
2024/02/03 15:01:05;;;;;;;;;;;18.70;43.20;;;;;;8413427;28;20451;-45
2024/02/03 15:05:07;;;;;;;7.17;2.50;;;18.70;43.20;;;;;;8422700;28;20140;-47
2024/02/03 15:09:07;;;;;;;6.20;1.92;;;18.80;43.20;;;;;;8423092;28;20112;-50
2024/02/03 15:13:09;;;;;;;4.40;2.03;;;18.80;43.20;;;;;;8412097;28;20055;-50
2024/02/03 15:17:09;;;;;;;4.00;2.08;;;18.80;43.40;;;;;;8412183;28;20119;-46
2024/02/03 15:21:10;;;;;;;3.15;1.90;;;18.80;43.40;;;;;;8422656;28;20504;-47
2024/02/03 15:25:13;;;;;;;3.38;2.25;;;18.80;43.60;;;;;;8422844;28;20385;-48
2024/02/03 15:29:14;;;;;;;8.50;2.08;;;18.80;44.00;;;;;;8422369;28;20032;-54
2024/02/03 15:33:17;;;;;;;3.22;2.33;;;18.80;43.90;;;;;;8422525;28;20047;-54
2024/02/03 15:37:17;;;;;;;5.47;2.15;;;18.80;43.80;;;;;;8421604;28;20452;-50
2024/02/03 15:41:18;;;;;;;4.57;2.15;;;18.90;44.00;;;;;;8421408;28;20036;-45
2024/02/03 15:45:19;;;;;;;4.55;1.77;;;18.80;44.00;;;;;;8422317;28;20017;-54
2024/02/03 15:49:20;;;;;;;6.93;1.70;;;18.90;44.00;;;;;;8422330;28;20070;-46
2024/02/03 15:53:20;;;;;;;3.53;2.00;;;18.90;44.30;;;;;;8421325;28;20028;-48
2024/02/03 15:57:22;;;;;;;2.08;1.60;;;18.90;44.50;;;;;;8420549;28;20044;-49
2024/02/03 16:01:23;;;;;;;4.80;1.92;;;18.90;44.20;;;;;;8421530;28;20094;-48
2024/02/03 16:05:24;;;;;;;2.90;1.77;;;18.90;44.20;;;;;;8418376;28;20032;-47
2024/02/03 16:09:24;;;;;;;2.53;1.98;;;18.90;43.70;;;;;;8420727;28;20036;-53
2024/02/03 16:13:25;;;;;;;2.30;2.10;;;18.90;43.90;;;;;;8420672;28;20056;-46
2024/02/03 16:17:26;;;;;;;6.07;1.80;;;18.90;44.40;;;;;;8421280;28;20680;-54
2024/02/03 16:21:26;;;;;;;4.28;1.80;;;19.00;44.40;;;;;;8420311;28;20024;-46
2024/02/03 16:25:27;;;;;;;8.95;2.00;;;19.00;44.80;;;;;;8420590;28;20528;-51
2024/02/03 16:29:28;;;;;;;5.57;1.95;;;19.00;44.90;;;;;;8419839;28;20044;-44
2024/02/03 16:33:28;;;;;;;3.95;2.03;;;19.10;44.80;;;;;;8417337;28;20028;-46
2024/02/03 16:37:30;;;;;;;6.18;2.20;;;19.10;45.30;;;;;;8420589;28;20024;-44
2024/02/03 16:41:31;;;;;;;5.03;1.70;;;19.10;45.50;;;;;;8417347;28;20119;-50
2024/02/03 16:45:32;;;;;;;12.05;2.55;;;19.20;46.20;;;;;;8419994;28;21345;-51
2024/02/03 16:49:33;;;;;;;4.57;2.40;;;19.20;46.20;;;;;;8418832;28;20113;-49
2024/02/03 16:53:34;;;;;;;9.77;2.67;;;19.20;46.20;;;;;;8424891;28;20906;-50
2024/02/03 16:57:36;;;;;;;11.50;2.28;;;19.20;47.40;;;;;;8429176;28;20550;-50
2024/02/03 17:01:42;;;;;;;18.05;2.30;;;19.20;47.00;;;;;;8426996;28;20040;-49
2024/02/03 17:05:42;;;;;;;14.60;2.83;;;19.30;47.70;;;;;;8428847;28;20072;-52
2024/02/03 17:09:43;;;;;;;8.70;2.47;;;19.30;47.00;;;;;;8429261;28;20040;-54
2024/02/03 17:13:44;;;;;;;7.82;2.85;;;19.30;47.50;;;;;;8445011;28;20030;-53
2024/02/03 17:17:44;;;;;;;15.77;2.58;;;19.30;48.80;;;;;;8447151;27;20408;-54
2024/02/03 17:21:45;;;;;;;14.35;2.90;;;19.40;48.90;;;;;;8444347;28;20085;-50
2024/02/03 17:25:46;;;;;;;11.25;2.63;;;19.40;49.40;;;;;;8427288;28;20421;-57
2024/02/03 17:29:46;;;;;;;12.60;2.47;;;19.40;49.30;;;;;;8445627;28;20024;-56
2024/02/03 17:33:47;;;;;;;8.48;2.67;;;19.40;49.30;;;;;;8445263;28;20436;-56
2024/02/03 17:37:48;;;;;;;10.20;2.90;;;19.40;48.80;;;;;;8445131;28;20036;-56
2024/02/03 17:41:49;;;;;;;;;;;19.40;49.00;;;;;;8445426;28;20038;-56
2024/02/03 17:45:49;;;;;;;9.27;2.60;;;19.40;49.00;;;;;;8444698;28;19908;-52
2024/02/03 17:49:50;;;;;;;10.40;2.60;;;19.40;48.70;;;;;;8444697;28;20874;-56
2024/02/03 17:53:51;;;;;;;7.65;2.63;;;19.40;48.80;;;;;;8444290;28;20468;-49
2024/02/03 17:57:51;;;;;;;5.97;2.08;;;19.40;48.70;;;;;;8443712;28;20766;-50
2024/02/03 18:01:52;;;;;;;9.95;2.38;;;19.40;48.70;;;;;;8444121;28;20055;-49
2024/02/03 18:05:53;;;;;;;10.60;3.20;;;19.40;48.80;;;;;;8443829;28;20028;-51
2024/02/03 18:09:54;;;;;;;8.18;3.15;;;19.30;48.40;;;;;;8442543;28;20050;-53
2024/02/03 18:13:55;;;;;;;14.13;4.28;;;19.10;46.90;;;;;;8426269;28;20062;-53
2024/02/03 18:17:57;;;;;;;22.80;6.65;;;18.80;45.60;;;;;;8416596;28;20402;-47
2024/02/03 18:21:57;;;;;;;21.38;6.22;;;18.80;46.40;;;;;;8423896;28;20043;-45
2024/02/03 18:25:58;;;;;;;17.15;5.90;;;18.90;46.10;;;;;;8425983;28;20075;-47
2024/02/03 18:29:58;;;;;;;19.73;5.78;;;19.10;47.60;;;;;;8423947;28;20024;-54
2024/02/03 18:33:59;;;;;;;24.67;6.07;;;19.10;47.30;;;;;;8426629;28;20408;-50
2024/02/03 18:38:00;;;;;;;14.43;4.80;;;19.10;47.70;;;;;;8426056;28;20032;-56
2024/02/03 18:42:01;;;;;;;27.55;5.93;;;19.10;47.00;;;;;;8425752;28;20032;-50
2024/02/03 18:46:01;;;;;;;16.38;4.68;;;19.20;47.50;;;;;;8424028;28;20497;-53
2024/02/03 18:50:03;;;;;;;19.77;5.03;;;19.30;47.20;;;;;;8422325;28;20055;-48
2024/02/03 18:54:03;;;;;;;;;;;19.20;47.00;;;;;;8425555;28;20039;-49
2024/02/03 18:58:04;;;;;;;18.73;5.17;;;19.30;47.40;;;;;;8424424;28;19916;-57
2024/02/03 19:02:05;;;;;;;16.70;5.05;;;19.30;47.60;;;;;;8422055;28;20485;-57
2024/02/03 19:06:05;;;;;;;11.40;4.47;;;19.20;47.80;;;;;;8425362;28;20032;-56
2024/02/03 19:10:07;;;;;;;18.80;4.38;;;19.20;47.30;;;;;;8422955;28;20048;-57
2024/02/03 19:14:10;;;;;;;22.73;4.97;;;19.20;47.90;;;;;;8425146;28;20060;-57
2024/02/03 19:18:11;;;;;;;15.20;4.20;;;19.20;47.30;;;;;;8424566;28;20119;-56
2024/02/03 19:22:18;;;;;;;21.05;4.57;;;19.20;47.10;;;;;;8424987;28;20040;-53
2024/02/03 19:26:20;;;;;;;16.80;4.68;;;19.20;47.60;;;;;;8420018;28;20043;-54
2024/02/03 19:30:21;;;;;;;12.57;4.13;;;19.10;47.10;;;;;;8422020;28;20028;-56
2024/02/03 19:34:21;;;;;;;16.30;5.57;;;19.10;47.10;;;;;;8423078;28;20131;-53
2024/02/03 19:38:22;;;;;;;9.88;5.50;;;19.00;46.60;;;;;;8423319;28;20024;-54
2024/02/03 19:42:23;;;;;;;9.60;4.97;;;18.80;45.20;;;;;;8420845;28;20040;-49
2024/02/03 19:46:23;;;;;;;10.00;4.93;;;18.60;44.80;;;;;;8423931;28;20055;-54
2024/02/03 19:50:24;;;;;;;8.23;4.35;;;18.60;44.20;;;;;;8422800;28;20286;-53
2024/02/03 19:54:25;;;;;;;7.13;4.38;;;18.70;44.20;;;;;;8423442;28;20028;-52
2024/02/03 19:58:25;;;;;;;10.98;4.40;;;18.70;44.00;;;;;;8422797;28;20473;-55
2024/02/03 20:02:26;;;;;;;8.65;3.75;;;18.70;44.10;;;;;;8420289;28;20957;-53
2024/02/03 20:06:27;;;;;;;14.68;4.47;;;18.70;43.80;;;;;;8423495;28;20123;-52
2024/02/03 20:10:28;;;;;;;7.63;3.72;;;18.70;43.80;;;;;;8422817;28;20105;-49
2024/02/03 20:14:29;;;;;;;6.82;3.95;;;18.80;43.60;;;;;;8421055;28;20036;-52
2024/02/03 20:18:30;;;;;;;7.28;3.78;;;18.70;43.50;;;;;;8418966;28;20028;-48
2024/02/03 20:22:31;;;;;;;5.85;3.60;;;18.70;44.00;;;;;;8411798;28;20039;-50
2024/02/03 20:26:31;;;;;;;7.05;3.40;;;18.80;43.20;;;;;;8421189;28;20103;-48
2024/02/03 20:30:33;;;;;;;9.05;3.63;;;18.80;43.90;;;;;;8421488;28;20451;-56
2024/02/03 20:34:34;;;;;;;7.40;3.78;;;18.90;43.80;;;;;;8421738;28;20043;-57
2024/02/03 20:38:36;;;;;;;12.68;6.78;;;19.00;43.60;;;;;;8422305;28;20052;-49
2024/02/03 20:42:36;;;;;;;12.60;5.78;;;18.90;43.20;;;;;;8420953;28;20055;-55
2024/02/03 20:46:37;;;;;;;13.03;5.97;;;18.90;43.40;;;;;;8418495;28;20032;-49
2024/02/03 20:50:38;;;;;;;9.35;5.15;;;18.80;43.40;;;;;;8422064;28;20352;-49
2024/02/03 20:54:39;;;;;;;14.40;6.07;;;18.80;43.50;;;;;;8422166;28;20036;-54